createdAt,value
2017-04-06T00:00:03.098Z,9.61
2017-04-06T00:01:03.126Z,9.61
2017-04-06T00:02:02.829Z,9.54
2017-04-06T00:03:03.137Z,9.5
2017-04-06T00:04:03.170Z,9.54
2017-04-06T00:05:03.170Z,9.51
2017-04-06T00:06:03.183Z,9.47
2017-04-06T00:07:03.198Z,9.46
2017-04-06T00:08:02.928Z,9.47
2017-04-06T00:09:03.228Z,9.4
2017-04-06T00:10:03.246Z,9.37
2017-04-06T00:11:03.262Z,9.34
2017-04-06T00:12:03.278Z,9.34
2017-04-06T00:13:03.475Z,9.34
2017-04-06T00:14:03.406Z,9.39
2017-04-06T00:15:03.402Z,9.39
2017-04-06T00:16:03.110Z,9.4
2017-04-06T00:17:03.133Z,9.34
2017-04-06T00:18:03.204Z,9.32
2017-04-06T00:19:03.424Z,9.32
2017-04-06T00:20:03.458Z,9.21
2017-04-06T00:21:03.167Z,9.25
2017-04-06T00:22:03.461Z,9.31
2017-04-06T00:23:03.566Z,9.23
2017-04-06T00:24:03.175Z,9.26
2017-04-06T00:25:03.482Z,9.28
2017-04-06T00:26:03.512Z,9.29
2017-04-06T00:27:03.514Z,9.21
2017-04-06T00:28:03.530Z,9.28
2017-04-06T00:29:03.542Z,9.31
2017-04-06T00:30:03.245Z,9.29
2017-04-06T00:31:03.575Z,9.31
2017-04-06T00:32:03.282Z,9.23
2017-04-06T00:33:03.610Z,9.28
2017-04-06T00:34:03.313Z,9.26
2017-04-06T00:35:03.633Z,9.16
2017-04-06T00:36:03.647Z,9.22
2017-04-06T00:37:03.673Z,9.16
2017-04-06T00:38:03.706Z,9.25
2017-04-06T00:39:03.695Z,9.14
2017-04-06T00:40:03.403Z,9.1
2017-04-06T00:41:03.740Z,9.1
2017-04-06T00:42:03.750Z,9.06
2017-04-06T00:43:03.750Z,9.08
2017-04-06T00:44:03.767Z,9.03
2017-04-06T00:45:03.784Z,8.94
2017-04-06T00:46:03.817Z,8.95
2017-04-06T00:47:03.822Z,8.95
2017-04-06T00:48:03.833Z,8.99
2017-04-06T00:49:03.849Z,8.95
2017-04-06T00:50:03.863Z,8.91
2017-04-06T00:51:03.870Z,8.94
2017-04-06T00:52:03.597Z,8.85
2017-04-06T00:53:03.587Z,8.95
2017-04-06T00:54:03.913Z,8.87
2017-04-06T00:55:03.934Z,8.97
2017-04-06T00:56:03.643Z,8.95
2017-04-06T00:57:03.968Z,8.94
2017-04-06T00:58:03.974Z,8.87
2017-04-06T00:59:03.994Z,8.88
2017-04-06T01:00:04.011Z,8.94
2017-04-06T01:01:04.028Z,8.88
2017-04-06T01:02:04.114Z,8.89
2017-04-06T01:03:04.067Z,8.88
2017-04-06T01:04:04.066Z,8.88
2017-04-06T01:05:03.916Z,8.88
2017-04-06T01:06:04.122Z,8.91
2017-04-06T01:07:04.230Z,8.88
2017-04-06T01:08:04.247Z,8.89
2017-04-06T01:09:04.257Z,8.94
2017-04-06T01:10:04.167Z,8.99
2017-04-06T01:11:04.367Z,8.97
2017-04-06T01:12:04.264Z,8.97
2017-04-06T01:13:04.198Z,8.95
2017-04-06T01:14:04.426Z,9.04
2017-04-06T01:15:04.237Z,9
2017-04-06T01:16:04.348Z,9.04
2017-04-06T01:17:04.259Z,9.04
2017-04-06T01:18:04.273Z,9.08
2017-04-06T01:19:04.319Z,9.08
2017-04-06T01:20:03.995Z,9.08
2017-04-06T01:21:04.318Z,9.06
2017-04-06T01:22:04.334Z,9.14
2017-04-06T01:23:04.345Z,9.11
2017-04-06T01:24:04.390Z,9.08
2017-04-06T01:25:04.394Z,9.06
2017-04-06T01:26:04.078Z,9.1
2017-04-06T01:27:04.402Z,9.11
2017-04-06T01:28:04.419Z,9.16
2017-04-06T01:29:04.120Z,9.1
2017-04-06T01:30:04.146Z,9.1
2017-04-06T01:31:04.460Z,9.08
2017-04-06T01:32:04.170Z,9.08
2017-04-06T01:33:04.181Z,9.1
2017-04-06T01:34:04.512Z,9.11
2017-04-06T01:35:04.528Z,9.11
2017-04-06T01:36:04.544Z,9.13
2017-04-06T01:37:04.637Z,9.11
2017-04-06T01:38:04.567Z,9.1
2017-04-06T01:39:04.583Z,9.11
2017-04-06T01:40:04.734Z,9.08
2017-04-06T01:41:04.620Z,9.06
2017-04-06T01:42:04.750Z,9.06
2017-04-06T01:43:04.639Z,9.04
2017-04-06T01:44:04.658Z,9.04
2017-04-06T01:45:04.690Z,9.08
2017-04-06T01:46:04.719Z,9.08
2017-04-06T01:47:04.703Z,9.06
2017-04-06T01:48:04.834Z,9.08
2017-04-06T01:49:04.848Z,9.08
2017-04-06T01:50:04.870Z,9.06
2017-04-06T01:51:04.827Z,8.99
2017-04-06T01:52:04.908Z,8.97
2017-04-06T01:53:04.921Z,9.02
2017-04-06T01:54:04.895Z,9
2017-04-06T01:55:04.716Z,8.97
2017-04-06T01:56:04.833Z,8.95
2017-04-06T01:57:05.010Z,8.95
2017-04-06T01:58:04.863Z,8.99
2017-04-06T01:59:04.878Z,8.95
2017-04-06T02:00:04.893Z,8.95
2017-04-06T02:01:04.908Z,8.95
2017-04-06T02:02:05.023Z,8.95
2017-04-06T02:03:04.627Z,8.95
2017-04-06T02:04:04.952Z,9
2017-04-06T02:05:04.963Z,8.87
2017-04-06T02:06:04.985Z,8.88
2017-04-06T02:07:05.000Z,9.02
2017-04-06T02:08:05.035Z,8.95
2017-04-06T02:09:05.022Z,8.95
2017-04-06T02:10:05.037Z,9
2017-04-06T02:11:04.741Z,9.02
2017-04-06T02:12:05.063Z,8.89
2017-04-06T02:13:05.089Z,9.02
2017-04-06T02:14:05.093Z,8.92
2017-04-06T02:15:05.116Z,8.97
2017-04-06T02:16:05.127Z,9
2017-04-06T02:17:05.134Z,8.94
2017-04-06T02:18:04.842Z,9
2017-04-06T02:19:05.188Z,8.95
2017-04-06T02:20:05.182Z,8.94
2017-04-06T02:21:05.196Z,8.95
2017-04-06T02:22:05.219Z,9.02
2017-04-06T02:23:05.235Z,8.94
2017-04-06T02:24:05.242Z,8.94
2017-04-06T02:25:05.256Z,9
2017-04-06T02:26:05.280Z,8.97
2017-04-06T02:27:05.283Z,9.06
2017-04-06T02:28:05.317Z,9.03
2017-04-06T02:29:05.350Z,8.99
2017-04-06T02:30:05.329Z,9.06
2017-04-06T02:31:05.345Z,9.02
2017-04-06T02:32:05.044Z,9
2017-04-06T02:33:05.371Z,9.1
2017-04-06T02:34:05.110Z,9.04
2017-04-06T02:35:05.400Z,9.1
2017-04-06T02:36:05.427Z,9.06
2017-04-06T02:37:05.428Z,9.13
2017-04-06T02:38:05.571Z,9.08
2017-04-06T02:39:05.460Z,9.08
2017-04-06T02:40:05.158Z,9.11
2017-04-06T02:41:05.488Z,9.21
2017-04-06T02:42:05.504Z,9.18
2017-04-06T02:43:05.518Z,9.13
2017-04-06T02:44:05.544Z,9.16
2017-04-06T02:45:05.543Z,9.14
2017-04-06T02:46:05.558Z,9.21
2017-04-06T02:47:05.312Z,9.13
2017-04-06T02:48:05.594Z,9.16
2017-04-06T02:49:05.294Z,9.18
2017-04-06T02:50:05.625Z,9.18
2017-04-06T02:51:05.642Z,9.18
2017-04-06T02:52:05.353Z,9.14
2017-04-06T02:53:05.661Z,9.14
2017-04-06T02:54:05.696Z,9.16
2017-04-06T02:55:05.693Z,9.16
2017-04-06T02:56:05.703Z,9.16
2017-04-06T02:57:05.723Z,9.13
2017-04-06T02:58:05.757Z,9.22
2017-04-06T02:59:05.754Z,9.11
2017-04-06T03:00:05.773Z,9.06
2017-04-06T03:01:05.779Z,9.16
2017-04-06T03:02:05.793Z,9.13
2017-04-06T03:03:05.812Z,9.1
2017-04-06T03:04:05.842Z,9.11
2017-04-06T03:05:05.527Z,9.13
2017-04-06T03:06:05.865Z,9.11
2017-04-06T03:07:05.558Z,9.13
2017-04-06T03:08:05.885Z,9.1
2017-04-06T03:09:05.581Z,9.08
2017-04-06T03:10:05.915Z,9.11
2017-04-06T03:11:05.927Z,9.1
2017-04-06T03:12:05.958Z,9.16
2017-04-06T03:13:05.954Z,9.11
2017-04-06T03:14:06.091Z,9.1
2017-04-06T03:15:06.098Z,9.06
2017-04-06T03:16:06.109Z,9.06
2017-04-06T03:17:06.131Z,9.14
2017-04-06T03:18:06.115Z,8.99
2017-04-06T03:19:06.050Z,9.06
2017-04-06T03:20:06.069Z,9.06
2017-04-06T03:21:06.071Z,9.02
2017-04-06T03:22:06.200Z,9.06
2017-04-06T03:23:06.209Z,9.04
2017-04-06T03:24:06.217Z,9.08
2017-04-06T03:25:06.227Z,9.04
2017-04-06T03:26:06.234Z,9
2017-04-06T03:27:05.857Z,9.03
2017-04-06T03:28:05.902Z,9.06
2017-04-06T03:29:06.275Z,9.08
2017-04-06T03:30:06.335Z,9.04
2017-04-06T03:31:06.343Z,9.1
2017-04-06T03:32:06.362Z,9.1
2017-04-06T03:33:06.380Z,9.1
2017-04-06T03:34:06.387Z,9.16
2017-04-06T03:35:06.279Z,9.1
2017-04-06T03:36:06.302Z,9.11
2017-04-06T03:37:06.320Z,9.06
2017-04-06T03:38:06.010Z,9.1
2017-04-06T03:39:06.331Z,9.06
2017-04-06T03:40:06.349Z,9.14
2017-04-06T03:41:06.363Z,9.08
2017-04-06T03:42:06.079Z,9.08
2017-04-06T03:43:06.394Z,9.08
2017-04-06T03:44:06.129Z,9.1
2017-04-06T03:45:06.422Z,9.1
2017-04-06T03:46:06.435Z,9.11
2017-04-06T03:47:06.449Z,9.1
2017-04-06T03:48:06.466Z,9.08
2017-04-06T03:49:06.480Z,9.16
2017-04-06T03:50:06.492Z,9.11
2017-04-06T03:51:06.542Z,9.1
2017-04-06T03:52:06.526Z,9.14
2017-04-06T03:53:06.239Z,9.11
2017-04-06T03:54:06.555Z,9.13
2017-04-06T03:55:06.568Z,9.14
2017-04-06T03:56:06.584Z,9.13
2017-04-06T03:57:06.594Z,9.13
2017-04-06T03:58:06.623Z,9.14
2017-04-06T03:59:06.623Z,9.21
2017-04-06T04:00:06.639Z,9.13
2017-04-06T04:01:06.658Z,9.14
2017-04-06T04:02:06.670Z,9.03
2017-04-06T04:03:06.680Z,9.13
2017-04-06T04:04:06.699Z,9.1
2017-04-06T04:05:06.711Z,9.02
2017-04-06T04:06:06.733Z,9.03
2017-04-06T04:07:06.749Z,9.02
2017-04-06T04:08:06.760Z,9.06
2017-04-06T04:09:06.776Z,9.06
2017-04-06T04:10:06.785Z,9.03
2017-04-06T04:11:06.805Z,9.1
2017-04-06T04:12:06.814Z,9.03
2017-04-06T04:13:06.852Z,8.97
2017-04-06T04:14:06.843Z,9.02
2017-04-06T04:15:06.871Z,9.02
2017-04-06T04:16:06.875Z,9
2017-04-06T04:17:06.884Z,9
2017-04-06T04:18:07.019Z,9
2017-04-06T04:19:07.020Z,9.04
2017-04-06T04:20:07.219Z,8.99
2017-04-06T04:21:06.634Z,8.95
2017-04-06T04:22:06.969Z,8.95
2017-04-06T04:23:06.975Z,8.97
2017-04-06T04:24:07.111Z,8.94
2017-04-06T04:25:07.064Z,8.99
2017-04-06T04:26:07.123Z,8.88
2017-04-06T04:27:06.719Z,8.94
2017-04-06T04:28:07.140Z,8.88
2017-04-06T04:29:07.150Z,8.91
2017-04-06T04:30:07.149Z,8.92
2017-04-06T04:31:07.156Z,8.91
2017-04-06T04:32:07.167Z,8.91
2017-04-06T04:33:07.274Z,8.91
2017-04-06T04:34:07.254Z,8.89
2017-04-06T04:35:07.253Z,8.91
2017-04-06T04:36:07.270Z,8.91
2017-04-06T04:37:07.279Z,8.89
2017-04-06T04:38:07.402Z,8.91
2017-04-06T04:39:07.400Z,8.89
2017-04-06T04:40:07.409Z,8.85
2017-04-06T04:41:07.420Z,8.88
2017-04-06T04:42:07.429Z,8.87
2017-04-06T04:43:07.439Z,8.91
2017-04-06T04:44:07.447Z,8.95
2017-04-06T04:45:07.443Z,8.94
2017-04-06T04:46:07.453Z,8.91
2017-04-06T04:47:07.462Z,8.85
2017-04-06T04:48:07.470Z,8.89
2017-04-06T04:49:07.480Z,8.89
2017-04-06T04:50:07.479Z,8.87
2017-04-06T04:51:07.527Z,8.88
2017-04-06T04:52:07.393Z,8.95
2017-04-06T04:53:07.410Z,8.84
2017-04-06T04:54:07.430Z,8.97
2017-04-06T04:55:07.441Z,8.91
2017-04-06T04:56:07.453Z,8.91
2017-04-06T04:57:07.499Z,8.88
2017-04-06T04:58:07.479Z,8.95
2017-04-06T04:59:07.500Z,8.91
2017-04-06T05:00:07.630Z,8.85
2017-04-06T05:01:07.538Z,8.91
2017-04-06T05:02:07.545Z,8.91
2017-04-06T05:03:07.557Z,8.92
2017-04-06T05:04:07.572Z,8.85
2017-04-06T05:05:07.269Z,8.88
2017-04-06T05:06:07.603Z,8.88
2017-04-06T05:07:07.620Z,8.88
2017-04-06T05:08:07.629Z,8.88
2017-04-06T05:09:07.644Z,8.85
2017-04-06T05:10:07.658Z,8.87
2017-04-06T05:11:07.670Z,8.88
2017-04-06T05:12:07.689Z,8.91
2017-04-06T05:13:07.397Z,8.87
2017-04-06T05:14:07.716Z,8.88
2017-04-06T05:15:07.732Z,8.87
2017-04-06T05:16:07.747Z,8.91
2017-04-06T05:17:07.756Z,8.95
2017-04-06T05:18:07.461Z,8.91
2017-04-06T05:19:07.789Z,8.87
2017-04-06T05:20:07.491Z,8.92
2017-04-06T05:21:07.824Z,8.85
2017-04-06T05:22:07.958Z,8.87
2017-04-06T05:23:07.846Z,8.94
2017-04-06T05:24:07.864Z,8.99
2017-04-06T05:25:07.884Z,9.02
2017-04-06T05:26:07.886Z,8.95
2017-04-06T05:27:07.901Z,9.02
2017-04-06T05:28:07.919Z,9.03
2017-04-06T05:29:07.930Z,9.02
2017-04-06T05:30:07.994Z,8.99
2017-04-06T05:31:07.963Z,8.95
2017-04-06T05:32:08.012Z,9.04
2017-04-06T05:33:08.022Z,9
2017-04-06T05:34:08.028Z,9.02
2017-04-06T05:35:07.824Z,9.08
2017-04-06T05:36:08.041Z,9.1
2017-04-06T05:37:07.849Z,9.02
2017-04-06T05:38:08.069Z,9.1
2017-04-06T05:39:08.080Z,9.22
2017-04-06T05:40:08.098Z,9.16
2017-04-06T05:41:08.108Z,9.16
2017-04-06T05:42:08.128Z,9.22
2017-04-06T05:43:07.514Z,9.16
2017-04-06T05:44:08.154Z,9.26
2017-04-06T05:45:08.174Z,9.23
2017-04-06T05:46:08.183Z,9.28
2017-04-06T05:47:08.196Z,9.22
2017-04-06T05:48:07.998Z,9.31
2017-04-06T05:49:08.224Z,9.21
2017-04-06T05:50:07.614Z,9.23
2017-04-06T05:51:08.252Z,9.23
2017-04-06T05:52:08.268Z,9.32
2017-04-06T05:53:08.303Z,9.34
2017-04-06T05:54:08.294Z,9.32
2017-04-06T05:55:08.372Z,9.36
2017-04-06T05:56:08.327Z,9.31
2017-04-06T05:57:08.022Z,9.39
2017-04-06T05:58:08.151Z,9.32
2017-04-06T05:59:08.471Z,9.4
2017-04-06T06:00:08.072Z,9.4
2017-04-06T06:01:08.488Z,9.47
2017-04-06T06:02:08.411Z,9.47
2017-04-06T06:03:08.113Z,9.41
2017-04-06T06:04:08.448Z,9.44
2017-04-06T06:05:08.142Z,9.44
2017-04-06T06:06:08.480Z,9.47
2017-04-06T06:07:08.482Z,9.46
2017-04-06T06:08:08.622Z,9.46
2017-04-06T06:09:08.591Z,9.43
2017-04-06T06:10:08.641Z,9.44
2017-04-06T06:11:08.545Z,9.43
2017-04-06T06:12:08.246Z,9.43
2017-04-06T06:13:08.573Z,9.43
2017-04-06T06:14:08.588Z,9.46
2017-04-06T06:15:08.602Z,9.48
2017-04-06T06:16:08.716Z,9.5
2017-04-06T06:17:08.633Z,9.48
2017-04-06T06:18:08.770Z,9.44
2017-04-06T06:19:08.667Z,9.46
2017-04-06T06:20:08.363Z,9.46
2017-04-06T06:21:08.821Z,9.54
2017-04-06T06:22:08.708Z,9.51
2017-04-06T06:23:08.839Z,9.5
2017-04-06T06:24:08.932Z,9.5
2017-04-06T06:25:08.748Z,9.5
2017-04-06T06:26:08.763Z,9.48
2017-04-06T06:27:08.778Z,9.59
2017-04-06T06:28:08.864Z,9.54
2017-04-06T06:29:08.808Z,9.56
2017-04-06T06:30:08.834Z,9.59
2017-04-06T06:31:08.840Z,9.62
2017-04-06T06:32:08.855Z,9.51
2017-04-06T06:33:08.868Z,9.54
2017-04-06T06:34:08.883Z,9.59
2017-04-06T06:35:08.899Z,9.54
2017-04-06T06:36:08.910Z,9.56
2017-04-06T06:37:08.611Z,9.56
2017-04-06T06:38:08.941Z,9.66
2017-04-06T06:39:08.955Z,9.58
2017-04-06T06:40:08.655Z,9.58
2017-04-06T06:41:08.674Z,9.55
2017-04-06T06:42:09.051Z,9.69
2017-04-06T06:43:09.015Z,9.68
2017-04-06T06:44:09.032Z,9.68
2017-04-06T06:45:08.732Z,9.61
2017-04-06T06:46:08.752Z,9.64
2017-04-06T06:47:09.079Z,9.64
2017-04-06T06:48:09.181Z,9.74
2017-04-06T06:49:09.101Z,9.69
2017-04-06T06:50:08.809Z,9.66
2017-04-06T06:51:09.138Z,9.79
2017-04-06T06:52:08.833Z,9.66
2017-04-06T06:53:09.172Z,9.64
2017-04-06T06:54:08.866Z,9.68
2017-04-06T06:55:09.194Z,9.69
2017-04-06T06:56:09.234Z,9.76
2017-04-06T06:57:09.222Z,9.79
2017-04-06T06:58:09.242Z,9.8
2017-04-06T06:59:09.250Z,9.82
2017-04-06T07:00:09.490Z,9.79
2017-04-06T07:01:09.298Z,9.83
2017-04-06T07:02:09.300Z,9.91
2017-04-06T07:03:09.313Z,9.89
2017-04-06T07:04:09.013Z,9.91
2017-04-06T07:05:09.345Z,9.94
2017-04-06T07:06:09.365Z,9.92
2017-04-06T07:07:09.388Z,9.95
2017-04-06T07:08:09.399Z,9.92
2017-04-06T07:09:09.402Z,9.89
2017-04-06T07:10:09.534Z,9.89
2017-04-06T07:11:09.119Z,9.92
2017-04-06T07:12:09.451Z,9.92
2017-04-06T07:13:09.151Z,9.91
2017-04-06T07:14:09.648Z,9.79
2017-04-06T07:15:09.490Z,9.82
2017-04-06T07:16:09.668Z,9.94
2017-04-06T07:17:09.229Z,9.89
2017-04-06T07:18:09.537Z,9.84
2017-04-06T07:19:09.683Z,9.8
2017-04-06T07:20:09.571Z,9.83
2017-04-06T07:21:09.594Z,9.84
2017-04-06T07:22:09.615Z,9.82
2017-04-06T07:23:09.610Z,9.84
2017-04-06T07:24:09.625Z,9.86
2017-04-06T07:25:09.642Z,9.87
2017-04-06T07:26:09.654Z,9.8
2017-04-06T07:27:09.676Z,9.8
2017-04-06T07:28:09.382Z,9.8
2017-04-06T07:29:09.706Z,9.8
2017-04-06T07:30:09.403Z,9.86
2017-04-06T07:31:09.732Z,9.79
2017-04-06T07:32:09.750Z,9.82
2017-04-06T07:33:09.763Z,9.89
2017-04-06T07:34:09.777Z,9.8
2017-04-06T07:35:09.794Z,9.8
2017-04-06T07:36:09.807Z,9.91
2017-04-06T07:37:09.816Z,9.87
2017-04-06T07:38:09.520Z,9.92
2017-04-06T07:39:09.542Z,9.95
2017-04-06T07:40:09.868Z,9.95
2017-04-06T07:41:09.880Z,9.97
2017-04-06T07:42:09.908Z,9.97
2017-04-06T07:43:10.035Z,9.89
2017-04-06T07:44:09.934Z,9.95
2017-04-06T07:45:09.948Z,9.99
2017-04-06T07:46:09.709Z,10.07
2017-04-06T07:47:09.973Z,10.02
2017-04-06T07:48:10.090Z,10.04
2017-04-06T07:49:10.003Z,10.07
2017-04-06T07:50:10.034Z,10.1
2017-04-06T07:51:10.032Z,10.13
2017-04-06T07:52:10.046Z,10.12
2017-04-06T07:53:10.292Z,10.13
2017-04-06T07:54:10.077Z,10.17
2017-04-06T07:55:10.096Z,10.2
2017-04-06T07:56:09.798Z,10.23
2017-04-06T07:57:10.136Z,10.25
2017-04-06T07:58:10.139Z,10.34
2017-04-06T07:59:10.344Z,10.33
2017-04-06T08:00:10.168Z,10.33
2017-04-06T08:01:10.191Z,10.31
2017-04-06T08:02:09.883Z,10.31
2017-04-06T08:03:10.216Z,10.4
2017-04-06T08:04:10.225Z,10.4
2017-04-06T08:05:10.243Z,10.37
2017-04-06T08:06:10.261Z,10.41
2017-04-06T08:07:10.276Z,10.54
2017-04-06T08:08:09.973Z,10.53
2017-04-06T08:09:09.678Z,10.54
2017-04-06T08:10:10.328Z,10.56
2017-04-06T08:11:10.340Z,10.6
2017-04-06T08:12:10.352Z,10.56
2017-04-06T08:13:10.365Z,10.54
2017-04-06T08:14:10.383Z,10.56
2017-04-06T08:15:10.401Z,10.56
2017-04-06T08:16:10.417Z,10.57
2017-04-06T08:17:10.430Z,10.56
2017-04-06T08:18:10.444Z,10.53
2017-04-06T08:19:10.457Z,10.61
2017-04-06T08:20:10.468Z,10.53
2017-04-06T08:21:10.903Z,10.6
2017-04-06T08:22:10.504Z,10.61
2017-04-06T08:23:10.518Z,10.63
2017-04-06T08:24:10.536Z,10.68
2017-04-06T08:25:10.552Z,10.71
2017-04-06T08:26:10.565Z,10.74
2017-04-06T08:27:10.579Z,10.75
2017-04-06T08:28:10.599Z,10.76
2017-04-06T08:29:10.614Z,10.82
2017-04-06T08:30:10.314Z,10.74
2017-04-06T08:31:10.646Z,10.79
2017-04-06T08:32:10.662Z,10.79
2017-04-06T08:33:10.721Z,10.78
2017-04-06T08:34:10.686Z,10.78
2017-04-06T08:35:10.391Z,10.78
2017-04-06T08:36:10.723Z,10.74
2017-04-06T08:37:10.738Z,10.76
2017-04-06T08:38:10.746Z,10.71
2017-04-06T08:39:10.764Z,10.75
2017-04-06T08:40:10.474Z,10.72
2017-04-06T08:41:10.801Z,10.74
2017-04-06T08:42:10.814Z,10.75
2017-04-06T08:43:10.830Z,10.76
2017-04-06T08:44:10.840Z,10.74
2017-04-06T08:45:10.859Z,10.79
2017-04-06T08:46:10.561Z,10.79
2017-04-06T08:47:10.888Z,10.89
2017-04-06T08:48:10.905Z,10.81
2017-04-06T08:49:10.918Z,10.94
2017-04-06T08:50:10.941Z,10.86
2017-04-06T08:51:10.955Z,10.87
2017-04-06T08:52:10.967Z,10.93
2017-04-06T08:53:10.985Z,11
2017-04-06T08:54:10.997Z,10.92
2017-04-06T08:55:10.734Z,10.9
2017-04-06T08:56:11.029Z,10.96
2017-04-06T08:57:11.043Z,10.99
2017-04-06T08:58:11.059Z,10.97
2017-04-06T08:59:11.077Z,10.96
2017-04-06T09:00:11.091Z,10.99
2017-04-06T09:01:11.106Z,11.07
2017-04-06T09:02:10.810Z,10.94
2017-04-06T09:03:11.138Z,10.97
2017-04-06T09:04:11.156Z,11.12
2017-04-06T09:05:11.167Z,11.18
2017-04-06T09:06:10.556Z,11.17
2017-04-06T09:07:11.199Z,11.19
2017-04-06T09:08:10.904Z,11.27
2017-04-06T09:09:10.602Z,11.27
2017-04-06T09:10:10.932Z,11.41
2017-04-06T09:11:11.268Z,11.41
2017-04-06T09:12:11.276Z,11.45
2017-04-06T09:13:11.051Z,11.5
2017-04-06T09:14:10.994Z,11.52
2017-04-06T09:15:11.325Z,11.63
2017-04-06T09:16:11.343Z,11.68
2017-04-06T09:17:11.043Z,11.7
2017-04-06T09:18:11.059Z,11.68
2017-04-06T09:19:11.385Z,11.77
2017-04-06T09:20:11.403Z,11.81
2017-04-06T09:21:11.417Z,11.77
2017-04-06T09:22:11.120Z,11.8
2017-04-06T09:23:11.136Z,11.81
2017-04-06T09:24:11.465Z,11.72
2017-04-06T09:25:10.857Z,11.91
2017-04-06T09:26:11.499Z,11.87
2017-04-06T09:27:11.521Z,11.9
2017-04-06T09:28:11.531Z,11.88
2017-04-06T09:29:11.546Z,11.9
2017-04-06T09:30:11.561Z,11.91
2017-04-06T09:31:11.580Z,12
2017-04-06T09:32:11.596Z,11.99
2017-04-06T09:33:11.611Z,12.03
2017-04-06T09:34:11.309Z,12.13
2017-04-06T09:35:11.667Z,12.12
2017-04-06T09:36:11.672Z,12.18
2017-04-06T09:37:11.673Z,12.17
2017-04-06T09:38:11.690Z,12.25
2017-04-06T09:39:11.707Z,12.25
2017-04-06T09:40:11.410Z,12.32
2017-04-06T09:41:11.745Z,12.27
2017-04-06T09:42:11.754Z,12.27
2017-04-06T09:43:11.461Z,12.37
2017-04-06T09:44:11.161Z,12.37
2017-04-06T09:45:11.801Z,12.32
2017-04-06T09:46:11.828Z,12.39
2017-04-06T09:47:11.834Z,12.47
2017-04-06T09:48:11.542Z,12.5
2017-04-06T09:49:11.555Z,12.49
2017-04-06T09:50:11.258Z,12.62
2017-04-06T09:51:11.589Z,12.65
2017-04-06T09:52:11.914Z,12.68
2017-04-06T09:53:11.932Z,12.68
2017-04-06T09:54:11.951Z,12.75
2017-04-06T09:55:11.965Z,12.8
2017-04-06T09:56:11.983Z,12.82
2017-04-06T09:57:12.018Z,12.79
2017-04-06T09:58:12.013Z,12.82
2017-04-06T09:59:12.034Z,12.76
2017-04-06T10:00:11.732Z,12.76
2017-04-06T10:01:11.754Z,12.82
2017-04-06T10:02:12.078Z,12.86
2017-04-06T10:03:12.099Z,12.78
2017-04-06T10:04:12.111Z,12.78
2017-04-06T10:05:12.131Z,12.8
2017-04-06T10:06:12.144Z,12.78
2017-04-06T10:07:12.164Z,12.73
2017-04-06T10:08:11.865Z,12.76
2017-04-06T10:09:12.203Z,12.78
2017-04-06T10:10:12.210Z,12.79
2017-04-06T10:11:12.235Z,12.85
2017-04-06T10:12:12.334Z,12.85
2017-04-06T10:13:12.266Z,12.82
2017-04-06T10:14:11.970Z,12.85
2017-04-06T10:15:12.297Z,12.97
2017-04-06T10:16:12.314Z,12.97
2017-04-06T10:17:12.329Z,13.03
2017-04-06T10:18:12.361Z,13.03
2017-04-06T10:19:12.364Z,12.98
2017-04-06T10:20:12.380Z,13.09
2017-04-06T10:21:12.406Z,13.11
2017-04-06T10:22:12.420Z,13.01
2017-04-06T10:23:12.429Z,13.2
2017-04-06T10:24:12.132Z,13.16
2017-04-06T10:25:12.463Z,13.18
2017-04-06T10:26:12.169Z,13.25
2017-04-06T10:27:12.502Z,13.33
2017-04-06T10:28:12.524Z,13.52
2017-04-06T10:29:12.534Z,13.56
2017-04-06T10:30:12.240Z,13.59
2017-04-06T10:31:12.277Z,13.65
2017-04-06T10:32:12.586Z,13.67
2017-04-06T10:33:12.601Z,13.68
2017-04-06T10:34:12.622Z,13.72
2017-04-06T10:35:12.645Z,13.78
2017-04-06T10:36:12.771Z,13.79
2017-04-06T10:37:12.688Z,13.78
2017-04-06T10:38:12.687Z,13.87
2017-04-06T10:39:12.704Z,13.96
2017-04-06T10:40:12.716Z,14.04
2017-04-06T10:41:12.736Z,14.12
2017-04-06T10:42:12.768Z,14.11
2017-04-06T10:43:12.777Z,14.12
2017-04-06T10:44:12.805Z,14.23
2017-04-06T10:45:12.491Z,14.28
2017-04-06T10:46:12.824Z,14.23
2017-04-06T10:47:12.843Z,14.25
2017-04-06T10:48:12.860Z,14.23
2017-04-06T10:49:12.871Z,14.3
2017-04-06T10:50:12.895Z,14.43
2017-04-06T10:51:12.908Z,14.43
2017-04-06T10:52:12.926Z,14.54
2017-04-06T10:53:12.947Z,14.66
2017-04-06T10:54:12.649Z,14.6
2017-04-06T10:55:12.988Z,14.69
2017-04-06T10:56:13.001Z,14.78
2017-04-06T10:57:13.019Z,14.86
2017-04-06T10:58:13.037Z,14.82
2017-04-06T10:59:12.746Z,14.89
2017-04-06T11:00:13.078Z,14.94
2017-04-06T11:01:13.090Z,15.04
2017-04-06T11:02:13.106Z,15.1
2017-04-06T11:03:13.120Z,15.14
2017-04-06T11:04:13.137Z,15.19
2017-04-06T11:05:13.155Z,15.19
2017-04-06T11:06:13.180Z,15.22
2017-04-06T11:07:13.194Z,15.28
2017-04-06T11:08:13.214Z,15.28
2017-04-06T11:09:13.234Z,15.24
2017-04-06T11:10:13.252Z,15.24
2017-04-06T11:11:13.470Z,15.36
2017-04-06T11:12:13.296Z,15.37
2017-04-06T11:13:13.302Z,15.36
2017-04-06T11:14:13.320Z,15.4
2017-04-06T11:15:13.345Z,15.51
2017-04-06T11:16:13.407Z,15.44
2017-04-06T11:17:13.382Z,15.51
2017-04-06T11:18:13.399Z,15.52
2017-04-06T11:19:13.410Z,15.52
2017-04-06T11:20:13.431Z,15.57
2017-04-06T11:21:13.450Z,15.58
2017-04-06T11:22:13.476Z,15.61
2017-04-06T11:23:13.484Z,15.65
2017-04-06T11:24:13.517Z,15.83
2017-04-06T11:25:13.524Z,15.8
2017-04-06T11:26:13.539Z,15.9
2017-04-06T11:27:13.560Z,15.91
2017-04-06T11:28:13.575Z,15.91
2017-04-06T11:29:13.626Z,15.94
2017-04-06T11:30:13.618Z,15.94
2017-04-06T11:31:13.635Z,15.91
2017-04-06T11:32:13.648Z,15.95
2017-04-06T11:33:13.787Z,16.02
2017-04-06T11:34:13.688Z,16.02
2017-04-06T11:35:13.389Z,16.1
2017-04-06T11:36:13.721Z,16.2
2017-04-06T11:37:13.737Z,16.2
2017-04-06T11:38:13.763Z,16.23
2017-04-06T11:39:13.774Z,16.24
2017-04-06T11:40:13.913Z,16.21
2017-04-06T11:41:13.939Z,16.31
2017-04-06T11:42:13.834Z,16.32
2017-04-06T11:43:13.855Z,16.41
2017-04-06T11:44:13.874Z,16.39
2017-04-06T11:45:14.022Z,16.35
2017-04-06T11:46:13.908Z,16.36
2017-04-06T11:47:13.928Z,16.42
2017-04-06T11:48:14.070Z,16.5
2017-04-06T11:49:13.968Z,16.5
2017-04-06T11:50:13.982Z,16.6
2017-04-06T11:51:14.005Z,16.68
2017-04-06T11:52:14.092Z,16.65
2017-04-06T11:53:14.170Z,16.75
2017-04-06T11:54:14.178Z,16.78
2017-04-06T11:55:14.178Z,16.84
2017-04-06T11:56:14.105Z,16.87
2017-04-06T11:57:14.114Z,16.81
2017-04-06T11:58:14.138Z,16.79
2017-04-06T11:59:14.152Z,16.83
2017-04-06T12:00:14.181Z,16.91
2017-04-06T12:01:14.399Z,16.78
2017-04-06T12:02:14.403Z,16.79
2017-04-06T12:03:14.234Z,16.84
2017-04-06T12:04:14.258Z,16.81
2017-04-06T12:05:14.271Z,16.83
2017-04-06T12:06:14.289Z,16.83
2017-04-06T12:07:14.308Z,16.81
2017-04-06T12:08:14.331Z,16.87
2017-04-06T12:09:14.352Z,16.81
2017-04-06T12:10:14.541Z,16.94
2017-04-06T12:11:14.518Z,16.91
2017-04-06T12:12:14.514Z,17.02
2017-04-06T12:13:14.539Z,16.9
2017-04-06T12:14:14.452Z,16.96
2017-04-06T12:15:14.466Z,17.06
2017-04-06T12:16:14.483Z,17.15
2017-04-06T12:17:14.515Z,17.06
2017-04-06T12:18:14.523Z,17.19
2017-04-06T12:19:14.544Z,17.16
2017-04-06T12:20:14.264Z,17.14
2017-04-06T12:21:14.578Z,17.09
2017-04-06T12:22:14.789Z,17.12
2017-04-06T12:23:14.658Z,17.26
2017-04-06T12:24:14.762Z,17.14
2017-04-06T12:25:14.658Z,17.12
2017-04-06T12:26:14.679Z,17.24
2017-04-06T12:27:14.817Z,17.2
2017-04-06T12:28:14.402Z,17.34
2017-04-06T12:29:14.739Z,17.34
2017-04-06T12:30:14.758Z,17.31
2017-04-06T12:31:14.786Z,17.36
2017-04-06T12:32:14.798Z,17.34
2017-04-06T12:33:14.504Z,17.31
2017-04-06T12:34:14.839Z,17.34
2017-04-06T12:35:14.863Z,17.24
2017-04-06T12:36:14.878Z,17.22
2017-04-06T12:37:14.898Z,17.24
2017-04-06T12:38:14.604Z,17.22
2017-04-06T12:39:15.032Z,17.36
2017-04-06T12:40:14.972Z,17.34
2017-04-06T12:41:15.116Z,17.38
2017-04-06T12:42:14.824Z,17.39
2017-04-06T12:43:15.113Z,17.54
2017-04-06T12:44:15.132Z,17.46
2017-04-06T12:45:15.273Z,17.52
2017-04-06T12:46:15.291Z,17.64
2017-04-06T12:47:15.243Z,17.71
2017-04-06T12:48:15.311Z,17.72
2017-04-06T12:49:15.325Z,17.8
2017-04-06T12:50:15.277Z,17.76
2017-04-06T12:51:15.331Z,17.79
2017-04-06T12:52:15.433Z,17.79
2017-04-06T12:53:15.034Z,17.82
2017-04-06T12:54:15.359Z,17.78
2017-04-06T12:55:15.398Z,17.8
2017-04-06T12:56:15.403Z,17.76
2017-04-06T12:57:15.416Z,17.72
2017-04-06T12:58:15.468Z,17.71
2017-04-06T12:59:15.165Z,17.7
2017-04-06T13:00:15.163Z,17.72
2017-04-06T13:01:15.447Z,17.72
2017-04-06T13:02:15.159Z,17.7
2017-04-06T13:03:15.499Z,17.68
2017-04-06T13:04:15.191Z,17.72
2017-04-06T13:05:15.509Z,17.68
2017-04-06T13:06:15.211Z,17.7
2017-04-06T13:07:15.532Z,17.76
2017-04-06T13:08:15.526Z,17.79
2017-04-06T13:09:15.543Z,17.76
2017-04-06T13:10:15.567Z,17.85
2017-04-06T13:11:15.579Z,17.92